sensor_id;sensor_type;location;lat;lon;timestamp;pressure;altitude;pressure_sealevel;temperature;humidity
4814;BME280;15375;48.540;9.268;2023-02-18T00:00:20;98300.50;;;11.42;100.00
4814;BME280;15375;48.540;9.268;2023-02-18T00:02:47;98317.56;;;11.57;100.00
4814;BME280;15375;48.540;9.268;2023-02-18T00:05:13;98331.63;;;11.55;100.00
4814;BME280;15375;48.540;9.268;2023-02-18T00:07:40;98332.78;;;11.58;100.00
4814;BME280;15375;48.540;9.268;2023-02-18T00:10:11;98330.09;;;11.51;100.00
4814;BME280;15375;48.540;9.268;2023-02-18T00:12:38;98325.03;;;11.46;100.00
4814;BME280;15375;48.540;9.268;2023-02-18T00:15:04;98328.91;;;11.52;100.00
4814;BME280;15375;48.540;9.268;2023-02-18T00:17:29;98319.56;;;11.46;100.00
4814;BME280;15375;48.540;9.268;2023-02-18T00:19:55;98315.31;;;11.41;100.00
4814;BME280;15375;48.540;9.268;2023-02-18T00:22:21;98314.13;;;11.46;100.00
4814;BME280;15375;48.540;9.268;2023-02-18T00:24:47;98273.25;;;11.28;100.00
4814;BME280;15375;48.540;9.268;2023-02-18T00:27:13;98300.50;;;11.39;100.00
4814;BME280;15375;48.540;9.268;2023-02-18T00:29:38;98293.88;;;11.36;100.00
4814;BME280;15375;48.540;9.268;2023-02-18T00:32:04;98308.69;;;11.39;100.00
4814;BME280;15375;48.540;9.268;2023-02-18T00:34:29;98303.97;;;11.46;100.00
4814;BME280;15375;48.540;9.268;2023-02-18T00:36:54;98296.56;;;11.47;100.00
4814;BME280;15375;48.540;9.268;2023-02-18T00:39:20;98299.66;;;11.45;100.00
4814;BME280;15375;48.540;9.268;2023-02-18T00:41:45;98297.72;;;11.46;100.00
4814;BME280;15375;48.540;9.268;2023-02-18T00:44:11;98281.44;;;11.32;100.00
4814;BME280;15375;48.540;9.268;2023-02-18T00:46:37;98293.47;;;11.41;100.00
4814;BME280;15375;48.540;9.268;2023-02-18T00:49:03;98302.81;;;11.40;100.00
4814;BME280;15375;48.540;9.268;2023-02-18T00:51:29;98304.00;;;11.39;100.00
4814;BME280;15375;48.540;9.268;2023-02-18T00:53:54;98312.97;;;11.43;100.00
4814;BME280;15375;48.540;9.268;2023-02-18T00:56:20;98309.78;;;11.52;100.00
4814;BME280;15375;48.540;9.268;2023-02-18T00:58:46;98298.50;;;11.46;100.00
4814;BME280;15375;48.540;9.268;2023-02-18T01:01:11;98282.59;;;11.34;100.00
4814;BME280;15375;48.540;9.268;2023-02-18T01:03:38;98279.06;;;11.30;100.00
4814;BME280;15375;48.540;9.268;2023-02-18T01:06:04;98284.91;;;11.39;100.00
4814;BME280;15375;48.540;9.268;2023-02-18T01:08:30;98290.72;;;11.45;100.00
4814;BME280;15375;48.540;9.268;2023-02-18T01:10:56;98284.50;;;11.41;100.00
4814;BME280;15375;48.540;9.268;2023-02-18T01:13:22;98252.59;;;11.24;100.00
4814;BME280;15375;48.540;9.268;2023-02-18T01:15:48;98271.97;;;11.47;100.00
4814;BME280;15375;48.540;9.268;2023-02-18T01:18:14;98264.97;;;11.42;100.00
4814;BME280;15375;48.540;9.268;2023-02-18T01:20:41;98260.31;;;11.39;100.00
4814;BME280;15375;48.540;9.268;2023-02-18T01:23:08;98276.66;;;11.43;100.00
4814;BME280;15375;48.540;9.268;2023-02-18T01:25:34;98281.72;;;11.48;100.00
4814;BME280;15375;48.540;9.268;2023-02-18T01:27:59;98269.28;;;11.40;100.00
4814;BME280;15375;48.540;9.268;2023-02-18T01:30:25;98267.66;;;11.46;100.00
4814;BME280;15375;48.540;9.268;2023-02-18T01:32:50;98258.69;;;11.45;100.00
4814;BME280;15375;48.540;9.268;2023-02-18T01:35:18;98267.25;;;11.51;100.00
4814;BME280;15375;48.540;9.268;2023-02-18T01:37:44;98261.00;;;11.50;100.00
4814;BME280;15375;48.540;9.268;2023-02-18T01:40:12;98264.94;;;11.46;100.00
4814;BME280;15375;48.540;9.268;2023-02-18T01:42:38;98268.88;;;11.45;100.00
4814;BME280;15375;48.540;9.268;2023-02-18T01:48:08;98253.97;;;11.53;100.00
4814;BME280;15375;48.540;9.268;2023-02-18T01:50:37;98241.88;;;11.50;100.00
4814;BME280;15375;48.540;9.268;2023-02-18T01:53:05;98243.88;;;11.46;100.00
4814;BME280;15375;48.540;9.268;2023-02-18T01:55:32;98239.97;;;11.44;100.00
4814;BME280;15375;48.540;9.268;2023-02-18T01:57:58;98252.06;;;11.46;100.00
4814;BME280;15375;48.540;9.268;2023-02-18T02:00:24;98254.75;;;11.53;100.00
4814;BME280;15375;48.540;9.268;2023-02-18T02:02:51;98263.72;;;11.54;100.00
4814;BME280;15375;48.540;9.268;2023-02-18T02:05:18;98259.06;;;11.51;100.00
4814;BME280;15375;48.540;9.268;2023-02-18T02:07:44;98246.19;;;11.48;100.00
4814;BME280;15375;48.540;9.268;2023-02-18T02:10:12;98259.41;;;11.57;100.00
4814;BME280;15375;48.540;9.268;2023-02-18T02:20:35;98241.50;;;11.48;100.00
4814;BME280;15375;48.540;9.268;2023-02-18T02:37:48;98224.94;;;11.18;100.00
4814;BME280;15375;48.540;9.268;2023-02-18T02:43:05;98226.13;;;11.14;100.00
4814;BME280;15375;48.540;9.268;2023-02-18T02:45:46;98218.38;;;11.09;100.00
4814;BME280;15375;48.540;9.268;2023-02-18T02:53:36;98215.22;;;11.14;100.00
4814;BME280;15375;48.540;9.268;2023-02-18T02:56:04;98216.38;;;11.13;100.00
4814;BME280;15375;48.540;9.268;2023-02-18T02:58:29;98165.81;;;10.90;100.00
4814;BME280;15375;48.540;9.268;2023-02-18T03:04:29;98212.81;;;11.23;100.00
4814;BME280;15375;48.540;9.268;2023-02-18T03:07:10;98208.91;;;11.24;100.00
4814;BME280;15375;48.540;9.268;2023-02-18T03:12:55;98192.47;;;11.31;100.00
4814;BME280;15375;48.540;9.268;2023-02-18T03:15:27;98197.13;;;11.37;100.00
4814;BME280;15375;48.540;9.268;2023-02-18T03:18:00;98197.50;;;11.39;100.00
4814;BME280;15375;48.540;9.268;2023-02-18T03:20:32;98204.16;;;11.35;100.00
4814;BME280;15375;48.540;9.268;2023-02-18T03:23:00;98186.25;;;11.27;100.00
4814;BME280;15375;48.540;9.268;2023-02-18T03:25:28;98115.53;;;10.88;100.00
4814;BME280;15375;48.540;9.268;2023-02-18T03:28:00;98183.09;;;11.32;100.00
4814;BME280;15375;48.540;9.268;2023-02-18T03:30:34;98204.88;;;11.42;100.00
4814;BME280;15375;48.540;9.268;2023-02-18T03:33:04;98197.13;;;11.37;100.00
4814;BME280;15375;48.540;9.268;2023-02-18T03:35:32;98191.63;;;11.41;99.70
4814;BME280;15375;48.540;9.268;2023-02-18T03:40:47;98184.63;;;11.40;99.40
4814;BME280;15375;48.540;9.268;2023-02-18T03:43:13;98185.03;;;11.35;99.44
4814;BME280;15375;48.540;9.268;2023-02-18T03:45:38;98151.97;;;11.22;99.27
4814;BME280;15375;48.540;9.268;2023-02-18T03:48:04;98153.88;;;11.29;99.05
4814;BME280;15375;48.540;9.268;2023-02-18T03:50:29;98175.22;;;11.41;98.88
4814;BME280;15375;48.540;9.268;2023-02-18T03:52:55;98133.66;;;11.16;99.27
4814;BME280;15375;48.540;9.268;2023-02-18T03:55:20;98155.03;;;11.28;99.44
4814;BME280;15375;48.540;9.268;2023-02-18T03:57:46;98159.69;;;11.31;99.79
4814;BME280;15375;48.540;9.268;2023-02-18T04:00:11;98126.31;;;11.09;100.00
4814;BME280;15375;48.540;9.268;2023-02-18T04:02:37;98142.28;;;11.11;100.00
4814;BME280;15375;48.540;9.268;2023-02-18T04:05:02;98155.25;;;11.00;100.00
4814;BME280;15375;48.540;9.268;2023-02-18T04:07:31;98157.22;;;10.96;100.00
4814;BME280;15375;48.540;9.268;2023-02-18T04:09:56;98159.63;;;10.86;100.00
4814;BME280;15375;48.540;9.268;2023-02-18T04:12:21;98137.81;;;10.79;100.00
4814;BME280;15375;48.540;9.268;2023-02-18T04:14:47;98159.56;;;10.90;100.00
4814;BME280;15375;48.540;9.268;2023-02-18T04:17:12;98164.72;;;10.81;100.00
4814;BME280;15375;48.540;9.268;2023-02-18T04:19:37;98172.94;;;10.74;100.00
4814;BME280;15375;48.540;9.268;2023-02-18T04:22:03;98174.88;;;10.70;100.00
4814;BME280;15375;48.540;9.268;2023-02-18T04:24:28;98185.81;;;10.70;100.00
4814;BME280;15375;48.540;9.268;2023-02-18T04:26:53;98170.66;;;10.62;100.00
4814;BME280;15375;48.540;9.268;2023-02-18T04:29:19;98178.81;;;10.65;100.00
4814;BME280;15375;48.540;9.268;2023-02-18T04:31:44;98167.94;;;10.58;100.00
4814;BME280;15375;48.540;9.268;2023-02-18T04:34:09;98167.94;;;10.58;100.00
4814;BME280;15375;48.540;9.268;2023-02-18T04:36:35;98163.28;;;10.55;100.00
4814;BME280;15375;48.540;9.268;2023-02-18T04:39:00;98167.16;;;10.61;100.00
4814;BME280;15375;48.540;9.268;2023-02-18T04:41:25;98164.09;;;10.49;100.00
4814;BME280;15375;48.540;9.268;2023-02-18T04:43:51;98173.44;;;10.51;100.00
4814;BME280;15375;48.540;9.268;2023-02-18T04:46:17;98173.41;;;10.62;100.00
4814;BME280;15375;48.540;9.268;2023-02-18T04:48:42;98161.34;;;10.52;100.00
4814;BME280;15375;48.540;9.268;2023-02-18T04:51:08;98175.72;;;10.60;100.00
4814;BME280;15375;48.540;9.268;2023-02-18T04:53:33;98161.75;;;10.54;100.00
4814;BME280;15375;48.540;9.268;2023-02-18T04:55:59;98166.38;;;10.57;100.00
4814;BME280;15375;48.540;9.268;2023-02-18T04:58:24;98158.19;;;10.57;100.00
4814;BME280;15375;48.540;9.268;2023-02-18T05:00:50;98177.28;;;10.64;100.00
4814;BME280;15375;48.540;9.268;2023-02-18T05:03:16;98171.41;;;10.62;100.00
4814;BME280;15375;48.540;9.268;2023-02-18T05:05:41;98144.63;;;10.47;100.00
4814;BME280;15375;48.540;9.268;2023-02-18T05:08:07;98145.38;;;10.51;100.00
4814;BME280;15375;48.540;9.268;2023-02-18T05:10:33;98167.16;;;10.58;100.00
4814;BME280;15375;48.540;9.268;2023-02-18T05:12:59;98177.28;;;10.57;100.00
4814;BME280;15375;48.540;9.268;2023-02-18T05:15:25;98164.88;;;10.49;100.00
4814;BME280;15375;48.540;9.268;2023-02-18T05:17:50;98140.78;;;10.30;100.00
4814;BME280;15375;48.540;9.268;2023-02-18T05:20:15;98169.50;;;10.52;100.00
4814;BME280;15375;48.540;9.268;2023-02-18T05:22:41;98164.06;;;10.56;100.00
4814;BME280;15375;48.540;9.268;2023-02-18T05:25:07;98155.91;;;10.49;100.00
4814;BME280;15375;48.540;9.268;2023-02-18T05:27:32;98161.75;;;10.54;100.00
4814;BME280;15375;48.540;9.268;2023-02-18T05:29:58;98153.94;;;10.53;100.00
4814;BME280;15375;48.540;9.268;2023-02-18T05:32:23;98172.63;;;10.58;100.00
4814;BME280;15375;48.540;9.268;2023-02-18T05:34:48;98143.06;;;10.42;100.00
4814;BME280;15375;48.540;9.268;2023-02-18T05:37:14;98165.59;;;10.60;100.00
4814;BME280;15375;48.540;9.268;2023-02-18T05:39:43;98147.69;;;10.56;100.00
4814;BME280;15375;48.540;9.268;2023-02-18T05:42:08;98139.13;;;10.50;100.00
4814;BME280;15375;48.540;9.268;2023-02-18T05:44:33;98151.56;;;10.58;100.00
4814;BME280;15375;48.540;9.268;2023-02-18T05:47:02;98165.16;;;10.69;100.00
4814;BME280;15375;48.540;9.268;2023-02-18T05:49:28;98165.94;;;10.69;100.00
4814;BME280;15375;48.540;9.268;2023-02-18T05:51:55;98148.84;;;10.62;100.00
4814;BME280;15375;48.540;9.268;2023-02-18T05:54:21;98137.97;;;10.51;100.00
4814;BME280;15375;48.540;9.268;2023-02-18T05:56:46;98160.50;;;10.62;100.00
4814;BME280;15375;48.540;9.268;2023-02-18T05:59:12;98165.56;;;10.67;100.00
4814;BME280;15375;48.540;9.268;2023-02-18T06:01:37;98166.38;;;10.57;100.00
4814;BME280;15375;48.540;9.268;2023-02-18T06:04:03;98150.00;;;10.61;100.00
4814;BME280;15375;48.540;9.268;2023-02-18T06:06:28;98157.78;;;10.62;100.00
4814;BME280;15375;48.540;9.268;2023-02-18T06:08:54;98160.50;;;10.62;100.00
4814;BME280;15375;48.540;9.268;2023-02-18T06:11:19;98080.88;;;10.05;100.00
4814;BME280;15375;48.540;9.268;2023-02-18T06:13:44;98109.25;;;10.29;100.00
4814;BME280;15375;48.540;9.268;2023-02-18T06:16:10;98162.84;;;10.64;100.00
4814;BME280;15375;48.540;9.268;2023-02-18T06:18:35;98150.75;;;10.68;100.00
4814;BME280;15375;48.540;9.268;2023-02-18T06:21:01;98157.00;;;10.65;100.00
4814;BME280;15375;48.540;9.268;2023-02-18T06:23:26;98138.72;;;10.55;100.00
4814;BME280;15375;48.540;9.268;2023-02-18T06:25:51;98158.94;;;10.68;100.00
4814;BME280;15375;48.540;9.268;2023-02-18T06:28:17;98151.13;;;10.70;100.00
4814;BME280;15375;48.540;9.268;2023-02-18T06:30:43;98156.84;;;10.90;100.00
4814;BME280;15375;48.540;9.268;2023-02-18T06:33:09;98128.44;;;10.80;100.00
4814;BME280;15375;48.540;9.268;2023-02-18T06:35:34;98134.69;;;10.84;100.00
4814;BME280;15375;48.540;9.268;2023-02-18T06:38:00;98131.16;;;10.84;100.00
4814;BME280;15375;48.540;9.268;2023-02-18T06:40:25;98147.06;;;10.96;100.00
4814;BME280;15375;48.540;9.268;2023-02-18T06:42:51;98143.50;;;11.03;100.00
4814;BME280;15375;48.540;9.268;2023-02-18T06:45:16;98157.59;;;10.98;100.00
4814;BME280;15375;48.540;9.268;2023-02-18T06:47:42;98138.16;;;10.92;100.00
4814;BME280;15375;48.540;9.268;2023-02-18T06:50:07;98160.66;;;11.03;100.00
4814;BME280;15375;48.540;9.268;2023-02-18T06:52:33;98136.16;;;10.93;100.00
4814;BME280;15375;48.540;9.268;2023-02-18T06:54:59;98149.75;;;11.03;100.00
4814;BME280;15375;48.540;9.268;2023-02-18T06:57:24;98153.59;;;11.13;100.00
4814;BME280;15375;48.540;9.268;2023-02-18T06:59:49;98152.03;;;11.12;100.00
4814;BME280;15375;48.540;9.268;2023-02-18T07:02:15;98154.34;;;11.17;100.00
4814;BME280;15375;48.540;9.268;2023-02-18T07:04:40;98155.84;;;11.25;100.00
4814;BME280;15375;48.540;9.268;2023-02-18T07:07:05;98151.19;;;11.22;100.00
4814;BME280;15375;48.540;9.268;2023-02-18T07:09:31;98151.56;;;11.24;100.00
4814;BME280;15375;48.540;9.268;2023-02-18T07:11:56;98146.84;;;11.28;100.00
4814;BME280;15375;48.540;9.268;2023-02-18T07:14:22;98143.31;;;11.31;99.86
4814;BME280;15375;48.540;9.268;2023-02-18T07:16:49;98144.06;;;11.35;99.09
4814;BME280;15375;48.540;9.268;2023-02-18T07:19:15;98155.28;;;11.47;99.78
4814;BME280;15375;48.540;9.268;2023-02-18T07:21:41;98162.66;;;11.50;99.70
4814;BME280;15375;48.540;9.268;2023-02-18T07:24:06;98168.50;;;11.52;99.96
4814;BME280;15375;48.540;9.268;2023-02-18T07:26:32;98151.78;;;11.47;100.00
4814;BME280;15375;48.540;9.268;2023-02-18T07:28:57;98141.66;;;11.40;100.00
4814;BME280;15375;48.540;9.268;2023-02-18T07:31:23;98148.59;;;11.52;99.72
4814;BME280;15375;48.540;9.268;2023-02-18T07:33:48;98148.53;;;11.59;99.08
4814;BME280;15375;48.540;9.268;2023-02-18T07:36:13;98154.72;;;11.67;98.76
4814;BME280;15375;48.540;9.268;2023-02-18T07:38:39;98123.31;;;11.44;98.75
4814;BME280;15375;48.540;9.268;2023-02-18T07:41:04;98160.56;;;11.69;97.93
4814;BME280;15375;48.540;9.268;2023-02-18T07:43:29;98139.94;;;11.61;98.25
4814;BME280;15375;48.540;9.268;2023-02-18T07:45:55;98143.41;;;11.68;97.86
4814;BME280;15375;48.540;9.268;2023-02-18T07:48:20;98122.03;;;11.56;96.93
4814;BME280;15375;48.540;9.268;2023-02-18T07:50:45;98145.69;;;11.73;96.21
4814;BME280;15375;48.540;9.268;2023-02-18T07:53:13;98151.03;;;11.87;95.28
4814;BME280;15375;48.540;9.268;2023-02-18T07:55:39;98141.97;;;11.94;94.76
4814;BME280;15375;48.540;9.268;2023-02-18T07:58:25;98132.56;;;11.98;94.67
4814;BME280;15375;48.540;9.268;2023-02-18T08:00:51;98106.88;;;11.89;93.87
4814;BME280;15375;48.540;9.268;2023-02-18T08:03:22;98136.69;;;12.13;92.73
4814;BME280;15375;48.540;9.268;2023-02-18T08:05:49;98134.00;;;12.10;91.98
4814;BME280;15375;48.540;9.268;2023-02-18T08:08:18;98126.84;;;12.20;91.76
4814;BME280;15375;48.540;9.268;2023-02-18T08:10:45;98130.03;;;12.14;91.18
4814;BME280;15375;48.540;9.268;2023-02-18T08:13:11;98123.84;;;12.10;91.87
4814;BME280;15375;48.540;9.268;2023-02-18T08:15:37;98121.84;;;12.14;91.49
4814;BME280;15375;48.540;9.268;2023-02-18T08:18:02;98100.31;;;12.16;91.09
4814;BME280;15375;48.540;9.268;2023-02-18T08:20:28;98117.47;;;12.21;90.20
4814;BME280;15375;48.540;9.268;2023-02-18T08:22:53;98111.63;;;12.18;89.43
4814;BME280;15375;48.540;9.268;2023-02-18T08:25:19;98093.72;;;12.14;89.63
4814;BME280;15375;48.540;9.268;2023-02-18T08:27:44;98089.84;;;12.11;89.19
4814;BME280;15375;48.540;9.268;2023-02-18T08:30:10;98117.41;;;12.24;89.04
4814;BME280;15375;48.540;9.268;2023-02-18T08:32:35;98106.03;;;12.29;89.75
4814;BME280;15375;48.540;9.268;2023-02-18T08:35:01;98114.56;;;12.35;89.32
4814;BME280;15375;48.540;9.268;2023-02-18T08:37:27;98104.88;;;12.27;88.85
4814;BME280;15375;48.540;9.268;2023-02-18T08:39:53;98087.75;;;12.23;87.89
4814;BME280;15375;48.540;9.268;2023-02-18T08:42:18;98105.13;;;12.39;87.46
4814;BME280;15375;48.540;9.268;2023-02-18T08:44:43;98112.53;;;12.39;86.44
4814;BME280;15375;48.540;9.268;2023-02-18T08:47:09;98107.06;;;12.39;87.10
4814;BME280;15375;48.540;9.268;2023-02-18T08:49:34;98110.25;;;12.34;87.41
4814;BME280;15375;48.540;9.268;2023-02-18T08:52:02;98102.47;;;12.32;87.80
4814;BME280;15375;48.540;9.268;2023-02-18T08:54:30;98119.47;;;12.47;87.03
4814;BME280;15375;48.540;9.268;2023-02-18T08:56:56;98110.88;;;12.48;87.17
4814;BME280;15375;48.540;9.268;2023-02-18T08:59:23;98107.00;;;12.46;86.09
4814;BME280;15375;48.540;9.268;2023-02-18T09:01:48;98107.00;;;12.46;86.02
4814;BME280;15375;48.540;9.268;2023-02-18T09:04:14;98089.91;;;12.38;86.43
4814;BME280;15375;48.540;9.268;2023-02-18T09:06:39;98087.63;;;12.33;86.92
4814;BME280;15375;48.540;9.268;2023-02-18T09:09:04;98113.22;;;12.46;86.62
4814;BME280;15375;48.540;9.268;2023-02-18T09:11:30;98106.16;;;12.49;86.87
4814;BME280;15375;48.540;9.268;2023-02-18T09:13:55;98119.25;;;12.34;87.08
4814;BME280;15375;48.540;9.268;2023-02-18T09:16:21;98102.91;;;12.31;86.87
4814;BME280;15375;48.540;9.268;2023-02-18T09:18:47;98114.44;;;12.45;87.46
4814;BME280;15375;48.540;9.268;2023-02-18T09:21:13;98081.88;;;12.24;86.90
4814;BME280;15375;48.540;9.268;2023-02-18T09:23:40;98102.03;;;12.37;86.82
4814;BME280;15375;48.540;9.268;2023-02-18T09:26:08;98102.44;;;12.36;86.48
4814;BME280;15375;48.540;9.268;2023-02-18T09:28:34;98102.47;;;12.32;87.40
4814;BME280;15375;48.540;9.268;2023-02-18T09:31:05;98083.47;;;12.22;86.91
4814;BME280;15375;48.540;9.268;2023-02-18T09:33:34;98102.13;;;12.30;86.93
4814;BME280;15375;48.540;9.268;2023-02-18T09:36:00;98084.66;;;12.21;87.22
4814;BME280;15375;48.540;9.268;2023-02-18T09:38:25;98071.25;;;12.30;86.46
4814;BME280;15375;48.540;9.268;2023-02-18T09:40:52;98088.16;;;12.51;86.48
4814;BME280;15375;48.540;9.268;2023-02-18T09:43:45;98083.66;;;12.64;85.85
4814;BME280;15375;48.540;9.268;2023-02-18T09:46:32;98078.97;;;12.65;84.51
4814;BME280;15375;48.540;9.268;2023-02-18T09:49:03;98059.78;;;12.68;84.83
4814;BME280;15375;48.540;9.268;2023-02-18T09:51:30;98043.50;;;12.58;84.28
4814;BME280;15375;48.540;9.268;2023-02-18T09:53:56;98035.38;;;12.77;83.82
4814;BME280;15375;48.540;9.268;2023-02-18T09:56:26;98049.38;;;12.83;83.81
4814;BME280;15375;48.540;9.268;2023-02-18T09:58:54;98054.75;;;12.90;83.62
4814;BME280;15375;48.540;9.268;2023-02-18T10:01:31;98045.75;;;12.90;83.57
4814;BME280;15375;48.540;9.268;2023-02-18T10:03:59;98034.97;;;12.79;83.79
4814;BME280;15375;48.540;9.268;2023-02-18T10:06:33;98051.34;;;12.82;83.59
4814;BME280;15375;48.540;9.268;2023-02-18T10:09:03;98057.13;;;12.88;83.83
4814;BME280;15375;48.540;9.268;2023-02-18T10:11:39;98060.72;;;12.81;84.30
4814;BME280;15375;48.540;9.268;2023-02-18T10:14:10;98063.31;;;12.92;84.67
4814;BME280;15375;48.540;9.268;2023-02-18T10:16:36;98048.44;;;12.93;84.10
4814;BME280;15375;48.540;9.268;2023-02-18T10:21:56;98071.38;;;13.03;83.24
4814;BME280;15375;48.540;9.268;2023-02-18T10:24:35;98077.53;;;13.10;83.64
4814;BME280;15375;48.540;9.268;2023-02-18T10:27:04;98062.13;;;12.93;84.61
4814;BME280;15375;48.540;9.268;2023-02-18T10:29:30;98056.78;;;12.86;84.95
4814;BME280;15375;48.540;9.268;2023-02-18T10:32:22;98071.06;;;12.97;86.07
4814;BME280;15375;48.540;9.268;2023-02-18T10:45:43;98022.22;;;12.69;85.79
4814;BME280;15375;48.540;9.268;2023-02-18T10:50:39;98089.09;;;12.95;87.58
4814;BME280;15375;48.540;9.268;2023-02-18T10:53:17;98071.28;;;12.83;86.81
4814;BME280;15375;48.540;9.268;2023-02-18T10:55:45;98087.44;;;13.01;85.00
4814;BME280;15375;48.540;9.268;2023-02-18T10:58:26;98075.09;;;12.89;84.08
4814;BME280;15375;48.540;9.268;2023-02-18T11:00:51;98088.38;;;12.91;84.46
4814;BME280;15375;48.540;9.268;2023-02-18T11:03:23;98097.09;;;12.82;85.91
4814;BME280;15375;48.540;9.268;2023-02-18T11:05:54;98096.28;;;12.85;85.98
4814;BME280;15375;48.540;9.268;2023-02-18T11:08:26;98069.84;;;12.75;85.97
4814;BME280;15375;48.540;9.268;2023-02-18T11:10:53;98073.94;;;12.87;85.08
4814;BME280;15375;48.540;9.268;2023-02-18T11:13:27;98080.94;;;12.91;85.05
4814;BME280;15375;48.540;9.268;2023-02-18T11:16:01;98067.97;;;12.95;84.75
4814;BME280;15375;48.540;9.268;2023-02-18T11:18:36;98072.00;;;12.87;85.59
4814;BME280;15375;48.540;9.268;2023-02-18T11:21:08;98068.28;;;13.01;84.69
4814;BME280;15375;48.540;9.268;2023-02-18T11:23:48;98068.53;;;13.10;83.98
4814;BME280;15375;48.540;9.268;2023-02-18T11:26:15;98055.16;;;13.15;83.59
4814;BME280;15375;48.540;9.268;2023-02-18T11:28:47;98044.06;;;13.22;83.59
4814;BME280;15375;48.540;9.268;2023-02-18T11:31:21;98048.53;;;13.13;83.91
4814;BME280;15375;48.540;9.268;2023-02-18T11:33:53;98038.38;;;13.13;82.56
4814;BME280;15375;48.540;9.268;2023-02-18T11:36:27;98030.28;;;13.06;83.44
4814;BME280;15375;48.540;9.268;2023-02-18T11:39:40;98032.53;;;13.11;83.59
4814;BME280;15375;48.540;9.268;2023-02-18T11:41:43;98027.88;;;13.08;83.06
4814;BME280;15375;48.540;9.268;2023-02-18T11:44:21;98023.84;;;13.16;82.51
4814;BME280;15375;48.540;9.268;2023-02-18T11:49:27;98022.81;;;13.30;81.46
4814;BME280;15375;48.540;9.268;2023-02-18T11:51:54;98013.28;;;13.38;80.03
4814;BME280;15375;48.540;9.268;2023-02-18T11:54:29;98009.22;;;13.46;79.48
4814;BME280;15375;48.540;9.268;2023-02-18T11:57:08;98008.09;;;13.43;78.61
4814;BME280;15375;48.540;9.268;2023-02-18T11:59:36;98010.69;;;13.51;78.87
4814;BME280;15375;48.540;9.268;2023-02-18T12:04:55;97995.81;;;13.52;78.53
4814;BME280;15375;48.540;9.268;2023-02-18T12:07:24;98022.25;;;13.62;77.73
4814;BME280;15375;48.540;9.268;2023-02-18T12:09:54;98020.19;;;13.66;77.54
4814;BME280;15375;48.540;9.268;2023-02-18T12:12:27;98016.81;;;13.58;78.02
4814;BME280;15375;48.540;9.268;2023-02-18T12:14:54;98012.66;;;13.70;77.53
4814;BME280;15375;48.540;9.268;2023-02-18T12:20:16;97987.28;;;13.85;76.21
4814;BME280;15375;48.540;9.268;2023-02-18T12:25:45;97986.38;;;13.92;73.05
4814;BME280;15375;48.540;9.268;2023-02-18T12:39:25;97988.06;;;13.86;72.28
4814;BME280;15375;48.540;9.268;2023-02-18T12:45:07;97981.94;;;13.98;72.16
4814;BME280;15375;48.540;9.268;2023-02-18T12:56:47;97962.09;;;14.62;70.68
4814;BME280;15375;48.540;9.268;2023-02-18T12:58:53;97972.13;;;14.68;70.25
4814;BME280;15375;48.540;9.268;2023-02-18T13:09:52;97955.81;;;14.94;68.62
4814;BME280;15375;48.540;9.268;2023-02-18T13:12:38;97955.06;;;14.77;67.62
4814;BME280;15375;48.540;9.268;2023-02-18T13:15:17;97950.09;;;14.72;68.89
4814;BME280;15375;48.540;9.268;2023-02-18T13:17:45;97945.16;;;14.96;67.20
4814;BME280;15375;48.540;9.268;2023-02-18T13:22:59;97942.00;;;14.81;68.28
4814;BME280;15375;48.540;9.268;2023-02-18T13:25:24;97938.16;;;14.95;68.41
4814;BME280;15375;48.540;9.268;2023-02-18T13:30:36;97927.41;;;14.84;67.95
4814;BME280;15375;48.540;9.268;2023-02-18T13:35:43;97920.59;;;14.60;67.48
4814;BME280;15375;48.540;9.268;2023-02-18T13:40:55;97925.41;;;14.20;70.11
4814;BME280;15375;48.540;9.268;2023-02-18T13:43:31;97941.75;;;14.43;69.70
4814;BME280;15375;48.540;9.268;2023-02-18T13:48:35;97931.28;;;14.38;69.41
4814;BME280;15375;48.540;9.268;2023-02-18T13:51:05;97919.78;;;14.27;69.17
4814;BME280;15375;48.540;9.268;2023-02-18T13:53:35;97920.47;;;14.31;69.77
4814;BME280;15375;48.540;9.268;2023-02-18T13:56:07;97918.78;;;14.18;69.01
4814;BME280;15375;48.540;9.268;2023-02-18T13:58:53;97891.09;;;13.96;69.86
4814;BME280;15375;48.540;9.268;2023-02-18T14:01:23;97922.75;;;14.17;70.45
4814;BME280;15375;48.540;9.268;2023-02-18T14:03:59;97938.66;;;14.05;70.03
4814;BME280;15375;48.540;9.268;2023-02-18T14:06:31;97912.13;;;13.83;70.93
4814;BME280;15375;48.540;9.268;2023-02-18T14:12:14;97924.00;;;13.96;69.91
4814;BME280;15375;48.540;9.268;2023-02-18T14:14:40;97940.78;;;13.98;69.55
4814;BME280;15375;48.540;9.268;2023-02-18T14:19:53;97924.78;;;13.96;68.95
4814;BME280;15375;48.540;9.268;2023-02-18T14:27:28;97909.66;;;13.88;69.18
4814;BME280;15375;48.540;9.268;2023-02-18T14:29:54;97908.19;;;13.84;68.93
4814;BME280;15375;48.540;9.268;2023-02-18T14:32:19;97879.22;;;13.67;68.85
4814;BME280;15375;48.540;9.268;2023-02-18T14:35:01;97907.59;;;13.76;69.04
4814;BME280;15375;48.540;9.268;2023-02-18T14:37:52;97900.63;;;13.72;69.32
4814;BME280;15375;48.540;9.268;2023-02-18T14:40:50;97911.59;;;13.72;68.96
4814;BME280;15375;48.540;9.268;2023-02-18T14:44:02;97898.47;;;13.63;70.10
4814;BME280;15375;48.540;9.268;2023-02-18T14:46:43;97899.16;;;13.67;70.47
4814;BME280;15375;48.540;9.268;2023-02-18T14:49:39;97906.88;;;13.72;70.94
4814;BME280;15375;48.540;9.268;2023-02-18T14:52:14;97910.88;;;13.68;69.91
4814;BME280;15375;48.540;9.268;2023-02-18T14:54:42;97878.09;;;13.44;69.29
4814;BME280;15375;48.540;9.268;2023-02-18T14:57:15;97890.09;;;13.51;67.99
4814;BME280;15375;48.540;9.268;2023-02-18T14:59:43;97900.28;;;13.50;68.42
4814;BME280;15375;48.540;9.268;2023-02-18T15:02:20;97905.72;;;13.54;68.16
4814;BME280;15375;48.540;9.268;2023-02-18T15:04:47;97897.56;;;13.50;68.16
4814;BME280;15375;48.540;9.268;2023-02-18T15:07:17;97885.31;;;13.55;68.36
4814;BME280;15375;48.540;9.268;2023-02-18T15:09:44;97892.13;;;13.66;69.23
4814;BME280;15375;48.540;9.268;2023-02-18T15:12:14;97892.19;;;13.63;71.50
4814;BME280;15375;48.540;9.268;2023-02-18T15:14:42;97895.66;;;13.67;72.80
4814;BME280;15375;48.540;9.268;2023-02-18T15:17:18;97900.34;;;13.66;73.01